Kimberlin Heights, Tennessee
Current Conditions -  °F | °C
As of 12:53 PM on Wednesday 28 Jan 2015 (Local Time) from KTYS Reporting Station
Few Clouds Few Clouds  
Wind Chill: 33°   Ceiling: Unl
Heat Index: 38°   Visibility: 10mi
Dew Point: 14°   Wind: 6mph
Humidity: 38%   Direction: NA
Pressure: 30.31"   Gusts: NA
Location:  35.9105°N, 83.8544°W
Report Text: KTYS 281753Z VRB05KT 10SM FEW250 03/M10 A3031 RMK AO2 SLP269 T00331100 10033 21056 58009
Loading
Personal Weather Stations






























Interactive Weather Map New forecast layout! Learn more

10-Day Weather Forecast

Advertisements
Track Severe Weather on mobile